Coxs Creek, Kentucky
Current Conditions -  °F | °C
As of 9:56 PM on Saturday 22 Nov 2014 (Local Time) from KSDF Reporting Station
Broken Clouds Broken Clouds  
Wind Chill: 50°   Ceiling: 17000
Heat Index: 50°   Visibility: 10mi
Dew Point: 33°   Wind: 6mph
Humidity: 52%   Direction: 130°SE
Pressure: 30.07"   Gusts: NA
Location:  37.92°N, 85.5°W
Report Text: KSDF 230256Z 13005KT 10SM FEW100 BKN170 BKN250 10/01 A3007 RMK AO2 SLP182 T01000006 56012
Loading
Personal Weather Stations






























Interactive Weather Map New forecast layout! Learn more

10-Day Weather Forecast

Advertisements
Track Severe Weather on mobile